sensor_id;sensor_type;location;lat;lon;timestamp;temperature;humidity
37242;DHT22;23135;51.078;12.108;2024-02-26T00:02:13;0.70;99.90
37242;DHT22;23135;51.078;12.108;2024-02-26T00:04:39;0.70;99.90
37242;DHT22;23135;51.078;12.108;2024-02-26T00:07:05;0.70;99.90
37242;DHT22;23135;51.078;12.108;2024-02-26T00:09:31;0.60;99.90
37242;DHT22;23135;51.078;12.108;2024-02-26T00:11:56;0.70;99.90
37242;DHT22;23135;51.078;12.108;2024-02-26T00:14:23;0.60;99.90
37242;DHT22;23135;51.078;12.108;2024-02-26T00:16:48;0.60;99.90
37242;DHT22;23135;51.078;12.108;2024-02-26T00:19:14;0.50;99.90
37242;DHT22;23135;51.078;12.108;2024-02-26T00:21:40;0.50;99.90
37242;DHT22;23135;51.078;12.108;2024-02-26T00:24:07;0.50;99.90
37242;DHT22;23135;51.078;12.108;2024-02-26T00:26:33;0.50;99.90
37242;DHT22;23135;51.078;12.108;2024-02-26T00:28:58;0.50;99.90
37242;DHT22;23135;51.078;12.108;2024-02-26T00:31:24;0.50;99.90
37242;DHT22;23135;51.078;12.108;2024-02-26T00:33:49;0.50;99.90
37242;DHT22;23135;51.078;12.108;2024-02-26T00:36:15;0.30;99.90
37242;DHT22;23135;51.078;12.108;2024-02-26T00:38:40;0.30;99.90
37242;DHT22;23135;51.078;12.108;2024-02-26T00:41:08;0.30;99.90
37242;DHT22;23135;51.078;12.108;2024-02-26T00:43:33;0.30;99.90
37242;DHT22;23135;51.078;12.108;2024-02-26T00:45:59;0.30;99.90
37242;DHT22;23135;51.078;12.108;2024-02-26T00:48:25;0.20;99.90
37242;DHT22;23135;51.078;12.108;2024-02-26T00:50:51;0.20;99.90
37242;DHT22;23135;51.078;12.108;2024-02-26T00:53:17;0.20;99.90
37242;DHT22;23135;51.078;12.108;2024-02-26T00:55:43;0.20;99.90
37242;DHT22;23135;51.078;12.108;2024-02-26T00:58:09;0.30;99.90
37242;DHT22;23135;51.078;12.108;2024-02-26T01:00:35;0.30;99.90
37242;DHT22;23135;51.078;12.108;2024-02-26T01:03:00;0.30;99.90
37242;DHT22;23135;51.078;12.108;2024-02-26T01:05:26;0.40;99.90
37242;DHT22;23135;51.078;12.108;2024-02-26T01:07:52;0.40;99.90
37242;DHT22;23135;51.078;12.108;2024-02-26T01:10:17;0.50;99.90
37242;DHT22;23135;51.078;12.108;2024-02-26T01:12:43;0.50;99.90
37242;DHT22;23135;51.078;12.108;2024-02-26T01:15:08;0.60;99.90
37242;DHT22;23135;51.078;12.108;2024-02-26T01:17:34;0.70;99.90
37242;DHT22;23135;51.078;12.108;2024-02-26T01:20:00;0.80;99.90
37242;DHT22;23135;51.078;12.108;2024-02-26T01:22:25;0.80;99.90
37242;DHT22;23135;51.078;12.108;2024-02-26T01:24:51;0.80;99.90
37242;DHT22;23135;51.078;12.108;2024-02-26T01:27:16;0.80;99.90
37242;DHT22;23135;51.078;12.108;2024-02-26T01:29:42;0.80;99.90
37242;DHT22;23135;51.078;12.108;2024-02-26T01:32:08;0.80;99.90
37242;DHT22;23135;51.078;12.108;2024-02-26T01:34:33;0.80;99.90
37242;DHT22;23135;51.078;12.108;2024-02-26T01:37:00;0.80;99.90
37242;DHT22;23135;51.078;12.108;2024-02-26T01:39:26;0.80;99.90
37242;DHT22;23135;51.078;12.108;2024-02-26T01:41:53;0.80;99.90
37242;DHT22;23135;51.078;12.108;2024-02-26T01:44:18;0.80;99.90
37242;DHT22;23135;51.078;12.108;2024-02-26T01:46:44;0.80;99.90
37242;DHT22;23135;51.078;12.108;2024-02-26T01:49:11;0.90;99.90
37242;DHT22;23135;51.078;12.108;2024-02-26T01:51:39;0.90;99.90
37242;DHT22;23135;51.078;12.108;2024-02-26T01:54:08;0.90;99.90
37242;DHT22;23135;51.078;12.108;2024-02-26T01:56:35;0.90;99.90
37242;DHT22;23135;51.078;12.108;2024-02-26T01:59:01;0.90;99.90
37242;DHT22;23135;51.078;12.108;2024-02-26T02:01:29;0.80;99.90
37242;DHT22;23135;51.078;12.108;2024-02-26T02:04:00;0.80;99.90
37242;DHT22;23135;51.078;12.108;2024-02-26T02:06:26;0.80;99.90
37242;DHT22;23135;51.078;12.108;2024-02-26T02:08:54;0.70;99.90
37242;DHT22;23135;51.078;12.108;2024-02-26T02:11:20;0.60;99.90
37242;DHT22;23135;51.078;12.108;2024-02-26T02:13:45;0.70;99.90
37242;DHT22;23135;51.078;12.108;2024-02-26T02:16:11;0.60;99.90
37242;DHT22;23135;51.078;12.108;2024-02-26T02:18:37;0.60;99.90
37242;DHT22;23135;51.078;12.108;2024-02-26T02:21:03;0.60;99.90
37242;DHT22;23135;51.078;12.108;2024-02-26T02:23:29;0.50;99.90
37242;DHT22;23135;51.078;12.108;2024-02-26T02:25:56;0.40;99.90
37242;DHT22;23135;51.078;12.108;2024-02-26T02:28:23;0.40;99.90
37242;DHT22;23135;51.078;12.108;2024-02-26T02:30:50;0.30;99.90
37242;DHT22;23135;51.078;12.108;2024-02-26T02:33:16;0.30;99.90
37242;DHT22;23135;51.078;12.108;2024-02-26T02:35:42;0.20;99.90
37242;DHT22;23135;51.078;12.108;2024-02-26T02:38:07;0.20;99.90
37242;DHT22;23135;51.078;12.108;2024-02-26T02:40:33;0.20;99.90
37242;DHT22;23135;51.078;12.108;2024-02-26T02:42:58;0.10;99.90
37242;DHT22;23135;51.078;12.108;2024-02-26T02:45:25;0.10;99.90
37242;DHT22;23135;51.078;12.108;2024-02-26T02:47:51;0.10;99.90
37242;DHT22;23135;51.078;12.108;2024-02-26T02:50:16;0.10;99.90
37242;DHT22;23135;51.078;12.108;2024-02-26T02:52:42;0.10;99.90
37242;DHT22;23135;51.078;12.108;2024-02-26T02:55:07;0.10;99.90
37242;DHT22;23135;51.078;12.108;2024-02-26T02:57:33;0.00;99.90
37242;DHT22;23135;51.078;12.108;2024-02-26T02:59:59;0.00;99.90
37242;DHT22;23135;51.078;12.108;2024-02-26T03:02:24;0.00;99.90
37242;DHT22;23135;51.078;12.108;2024-02-26T03:04:50;0.00;99.90
37242;DHT22;23135;51.078;12.108;2024-02-26T03:07:16;0.00;99.90
37242;DHT22;23135;51.078;12.108;2024-02-26T03:09:42;0.10;99.90
37242;DHT22;23135;51.078;12.108;2024-02-26T03:12:07;0.10;99.90
37242;DHT22;23135;51.078;12.108;2024-02-26T03:14:33;0.10;99.90
37242;DHT22;23135;51.078;12.108;2024-02-26T03:16:59;0.10;99.90
37242;DHT22;23135;51.078;12.108;2024-02-26T03:19:24;0.00;99.90
37242;DHT22;23135;51.078;12.108;2024-02-26T03:21:50;0.00;99.90
37242;DHT22;23135;51.078;12.108;2024-02-26T03:24:15;-0.10;99.90
37242;DHT22;23135;51.078;12.108;2024-02-26T03:26:41;-0.10;99.90
37242;DHT22;23135;51.078;12.108;2024-02-26T03:29:06;-0.20;99.90
37242;DHT22;23135;51.078;12.108;2024-02-26T03:31:32;-0.20;99.90
37242;DHT22;23135;51.078;12.108;2024-02-26T03:33:57;-0.30;99.90
37242;DHT22;23135;51.078;12.108;2024-02-26T03:36:23;-0.30;99.90
37242;DHT22;23135;51.078;12.108;2024-02-26T03:38:48;-0.30;99.90
37242;DHT22;23135;51.078;12.108;2024-02-26T03:41:14;-0.40;99.90
37242;DHT22;23135;51.078;12.108;2024-02-26T03:43:40;-0.30;99.90
37242;DHT22;23135;51.078;12.108;2024-02-26T03:46:09;-0.30;99.90
37242;DHT22;23135;51.078;12.108;2024-02-26T03:48:36;-0.20;99.90
37242;DHT22;23135;51.078;12.108;2024-02-26T03:51:02;-0.20;99.90
37242;DHT22;23135;51.078;12.108;2024-02-26T03:53:28;-0.30;99.90
37242;DHT22;23135;51.078;12.108;2024-02-26T03:55:53;-0.30;99.90
37242;DHT22;23135;51.078;12.108;2024-02-26T03:58:20;-0.30;99.90
37242;DHT22;23135;51.078;12.108;2024-02-26T04:00:46;-0.30;99.90
37242;DHT22;23135;51.078;12.108;2024-02-26T04:03:13;-0.30;99.90
37242;DHT22;23135;51.078;12.108;2024-02-26T04:05:39;-0.30;99.90
37242;DHT22;23135;51.078;12.108;2024-02-26T04:08:05;-0.40;99.90
37242;DHT22;23135;51.078;12.108;2024-02-26T04:10:33;-0.30;99.90
37242;DHT22;23135;51.078;12.108;2024-02-26T04:13:00;-0.30;99.90
37242;DHT22;23135;51.078;12.108;2024-02-26T04:15:26;-0.30;99.90
37242;DHT22;23135;51.078;12.108;2024-02-26T04:17:51;-0.40;99.90
37242;DHT22;23135;51.078;12.108;2024-02-26T04:20:17;-0.30;99.90
37242;DHT22;23135;51.078;12.108;2024-02-26T04:22:43;-0.30;99.90
37242;DHT22;23135;51.078;12.108;2024-02-26T04:25:08;-0.40;99.90
37242;DHT22;23135;51.078;12.108;2024-02-26T04:27:34;-0.40;99.90
37242;DHT22;23135;51.078;12.108;2024-02-26T04:29:59;-0.40;99.90
37242;DHT22;23135;51.078;12.108;2024-02-26T04:32:25;-0.40;99.90
37242;DHT22;23135;51.078;12.108;2024-02-26T04:34:50;-0.40;99.90
37242;DHT22;23135;51.078;12.108;2024-02-26T04:37:16;-0.40;99.90
37242;DHT22;23135;51.078;12.108;2024-02-26T04:39:41;-0.50;99.90
37242;DHT22;23135;51.078;12.108;2024-02-26T04:42:07;-0.50;99.90
37242;DHT22;23135;51.078;12.108;2024-02-26T04:44:33;-0.60;99.90
37242;DHT22;23135;51.078;12.108;2024-02-26T04:46:58;-0.60;99.90
37242;DHT22;23135;51.078;12.108;2024-02-26T04:49:24;-0.60;99.90
37242;DHT22;23135;51.078;12.108;2024-02-26T04:51:49;-0.60;99.90
37242;DHT22;23135;51.078;12.108;2024-02-26T04:54:15;-0.60;99.90
37242;DHT22;23135;51.078;12.108;2024-02-26T04:56:41;-0.50;99.90
37242;DHT22;23135;51.078;12.108;2024-02-26T04:59:06;-0.50;99.90
37242;DHT22;23135;51.078;12.108;2024-02-26T05:01:32;-0.50;99.90
37242;DHT22;23135;51.078;12.108;2024-02-26T05:03:57;-0.60;99.90
37242;DHT22;23135;51.078;12.108;2024-02-26T05:06:23;-0.60;99.90
37242;DHT22;23135;51.078;12.108;2024-02-26T05:08:48;-0.60;99.90
37242;DHT22;23135;51.078;12.108;2024-02-26T05:11:14;-0.60;99.90
37242;DHT22;23135;51.078;12.108;2024-02-26T05:13:39;-0.60;99.90
37242;DHT22;23135;51.078;12.108;2024-02-26T05:16:05;-0.60;99.90
37242;DHT22;23135;51.078;12.108;2024-02-26T05:18:30;-0.50;99.90
37242;DHT22;23135;51.078;12.108;2024-02-26T05:20:56;-0.50;99.90
37242;DHT22;23135;51.078;12.108;2024-02-26T05:23:22;-0.40;99.90
37242;DHT22;23135;51.078;12.108;2024-02-26T05:25:48;-0.40;99.90
37242;DHT22;23135;51.078;12.108;2024-02-26T05:28:14;-0.40;99.90
37242;DHT22;23135;51.078;12.108;2024-02-26T05:30:42;-0.30;99.90
37242;DHT22;23135;51.078;12.108;2024-02-26T05:33:07;-0.30;99.90
37242;DHT22;23135;51.078;12.108;2024-02-26T05:35:33;-0.30;99.90
37242;DHT22;23135;51.078;12.108;2024-02-26T05:37:58;-0.30;99.90
37242;DHT22;23135;51.078;12.108;2024-02-26T05:40:24;-0.30;99.90
37242;DHT22;23135;51.078;12.108;2024-02-26T05:42:49;-0.30;99.90
37242;DHT22;23135;51.078;12.108;2024-02-26T05:45:15;-0.30;99.90
37242;DHT22;23135;51.078;12.108;2024-02-26T05:47:41;-0.30;99.90
37242;DHT22;23135;51.078;12.108;2024-02-26T05:50:11;-0.30;99.90
37242;DHT22;23135;51.078;12.108;2024-02-26T05:52:37;-0.20;99.90
37242;DHT22;23135;51.078;12.108;2024-02-26T05:55:04;-0.30;99.90
37242;DHT22;23135;51.078;12.108;2024-02-26T05:57:30;-0.20;99.90
37242;DHT22;23135;51.078;12.108;2024-02-26T05:59:56;-0.20;99.90
37242;DHT22;23135;51.078;12.108;2024-02-26T06:02:22;-0.20;99.90
37242;DHT22;23135;51.078;12.108;2024-02-26T06:04:47;-0.30;99.90
37242;DHT22;23135;51.078;12.108;2024-02-26T06:07:13;-0.30;99.90
37242;DHT22;23135;51.078;12.108;2024-02-26T06:09:38;-0.30;99.90
37242;DHT22;23135;51.078;12.108;2024-02-26T06:12:05;-0.30;99.90
37242;DHT22;23135;51.078;12.108;2024-02-26T06:14:30;-0.30;99.90
37242;DHT22;23135;51.078;12.108;2024-02-26T06:16:56;-0.30;99.90
37242;DHT22;23135;51.078;12.108;2024-02-26T06:19:21;-0.30;99.90
37242;DHT22;23135;51.078;12.108;2024-02-26T06:21:47;-0.30;99.90
37242;DHT22;23135;51.078;12.108;2024-02-26T06:24:13;-0.30;99.90
37242;DHT22;23135;51.078;12.108;2024-02-26T06:26:38;-0.20;99.90
37242;DHT22;23135;51.078;12.108;2024-02-26T06:29:04;-0.20;99.90
37242;DHT22;23135;51.078;12.108;2024-02-26T06:31:29;-0.20;99.90
37242;DHT22;23135;51.078;12.108;2024-02-26T06:33:55;-0.10;99.90
37242;DHT22;23135;51.078;12.108;2024-02-26T06:36:22;-0.10;99.90
37242;DHT22;23135;51.078;12.108;2024-02-26T06:38:48;-0.10;99.90
37242;DHT22;23135;51.078;12.108;2024-02-26T06:41:14;0.00;99.90
37242;DHT22;23135;51.078;12.108;2024-02-26T06:43:40;0.00;99.90
37242;DHT22;23135;51.078;12.108;2024-02-26T06:46:06;0.10;99.90
37242;DHT22;23135;51.078;12.108;2024-02-26T06:48:32;0.10;99.90
37242;DHT22;23135;51.078;12.108;2024-02-26T06:50:57;0.20;99.90
37242;DHT22;23135;51.078;12.108;2024-02-26T06:53:23;0.20;99.90
37242;DHT22;23135;51.078;12.108;2024-02-26T06:55:48;0.20;99.90
37242;DHT22;23135;51.078;12.108;2024-02-26T06:58:15;0.30;99.90
37242;DHT22;23135;51.078;12.108;2024-02-26T07:00:41;0.40;99.90
37242;DHT22;23135;51.078;12.108;2024-02-26T07:03:07;0.40;99.90
37242;DHT22;23135;51.078;12.108;2024-02-26T07:05:32;0.50;99.90
37242;DHT22;23135;51.078;12.108;2024-02-26T07:07:58;0.60;99.90
37242;DHT22;23135;51.078;12.108;2024-02-26T07:10:23;0.70;99.90
37242;DHT22;23135;51.078;12.108;2024-02-26T07:12:49;0.70;99.90
37242;DHT22;23135;51.078;12.108;2024-02-26T07:15:15;0.80;99.90
37242;DHT22;23135;51.078;12.108;2024-02-26T07:17:41;0.80;99.90
37242;DHT22;23135;51.078;12.108;2024-02-26T07:20:08;0.90;99.90
37242;DHT22;23135;51.078;12.108;2024-02-26T07:22:34;1.00;99.90
37242;DHT22;23135;51.078;12.108;2024-02-26T07:24:59;1.10;99.90
37242;DHT22;23135;51.078;12.108;2024-02-26T07:27:25;1.10;99.90
37242;DHT22;23135;51.078;12.108;2024-02-26T07:29:51;1.20;99.90
37242;DHT22;23135;51.078;12.108;2024-02-26T07:32:17;1.30;99.90
37242;DHT22;23135;51.078;12.108;2024-02-26T07:34:43;1.40;99.90
37242;DHT22;23135;51.078;12.108;2024-02-26T07:37:10;1.40;99.90
37242;DHT22;23135;51.078;12.108;2024-02-26T07:39:36;1.40;99.90
37242;DHT22;23135;51.078;12.108;2024-02-26T07:42:02;1.50;99.90
37242;DHT22;23135;51.078;12.108;2024-02-26T07:44:28;1.60;99.90
37242;DHT22;23135;51.078;12.108;2024-02-26T07:46:53;1.60;99.90
37242;DHT22;23135;51.078;12.108;2024-02-26T07:49:19;1.60;99.90
37242;DHT22;23135;51.078;12.108;2024-02-26T07:51:44;1.60;99.90
37242;DHT22;23135;51.078;12.108;2024-02-26T07:54:10;1.70;99.90
37242;DHT22;23135;51.078;12.108;2024-02-26T07:56:35;1.90;99.90
37242;DHT22;23135;51.078;12.108;2024-02-26T07:59:01;2.10;99.90
37242;DHT22;23135;51.078;12.108;2024-02-26T08:01:26;2.20;99.90
37242;DHT22;23135;51.078;12.108;2024-02-26T08:03:53;2.40;99.90
37242;DHT22;23135;51.078;12.108;2024-02-26T08:06:19;2.60;99.90
37242;DHT22;23135;51.078;12.108;2024-02-26T08:08:44;2.80;99.90
37242;DHT22;23135;51.078;12.108;2024-02-26T08:11:10;3.20;99.90
37242;DHT22;23135;51.078;12.108;2024-02-26T08:13:35;3.40;99.90
37242;DHT22;23135;51.078;12.108;2024-02-26T08:16:01;3.80;99.90
37242;DHT22;23135;51.078;12.108;2024-02-26T08:18:27;4.00;99.90
37242;DHT22;23135;51.078;12.108;2024-02-26T08:20:52;4.30;99.90
37242;DHT22;23135;51.078;12.108;2024-02-26T08:23:18;4.50;99.90
37242;DHT22;23135;51.078;12.108;2024-02-26T08:25:43;4.80;99.90
37242;DHT22;23135;51.078;12.108;2024-02-26T08:28:09;5.10;99.90
37242;DHT22;23135;51.078;12.108;2024-02-26T08:30:38;5.40;99.90
37242;DHT22;23135;51.078;12.108;2024-02-26T08:33:04;5.70;99.90
37242;DHT22;23135;51.078;12.108;2024-02-26T08:35:29;5.80;99.90
37242;DHT22;23135;51.078;12.108;2024-02-26T08:37:55;6.00;99.90
37242;DHT22;23135;51.078;12.108;2024-02-26T08:40:20;6.10;99.90
37242;DHT22;23135;51.078;12.108;2024-02-26T08:42:46;6.30;99.90
37242;DHT22;23135;51.078;12.108;2024-02-26T08:45:12;6.40;99.90
37242;DHT22;23135;51.078;12.108;2024-02-26T08:47:38;6.60;99.90
37242;DHT22;23135;51.078;12.108;2024-02-26T08:50:04;6.80;99.90
37242;DHT22;23135;51.078;12.108;2024-02-26T08:52:30;6.70;99.90
37242;DHT22;23135;51.078;12.108;2024-02-26T08:54:56;6.70;99.90
37242;DHT22;23135;51.078;12.108;2024-02-26T08:57:22;6.80;99.90
37242;DHT22;23135;51.078;12.108;2024-02-26T08:59:48;6.80;99.90
37242;DHT22;23135;51.078;12.108;2024-02-26T09:02:13;6.80;99.90
37242;DHT22;23135;51.078;12.108;2024-02-26T09:04:39;6.90;99.90
37242;DHT22;23135;51.078;12.108;2024-02-26T09:07:04;6.90;99.90
37242;DHT22;23135;51.078;12.108;2024-02-26T09:09:31;7.00;99.90
37242;DHT22;23135;51.078;12.108;2024-02-26T09:11:57;7.10;99.90
37242;DHT22;23135;51.078;12.108;2024-02-26T09:14:22;6.90;99.90
37242;DHT22;23135;51.078;12.108;2024-02-26T09:16:48;6.80;99.90
37242;DHT22;23135;51.078;12.108;2024-02-26T09:19:14;6.80;99.90
37242;DHT22;23135;51.078;12.108;2024-02-26T09:21:44;6.80;99.90
37242;DHT22;23135;51.078;12.108;2024-02-26T09:24:13;6.80;99.90
37242;DHT22;23135;51.078;12.108;2024-02-26T09:26:39;6.80;99.90
37242;DHT22;23135;51.078;12.108;2024-02-26T09:29:04;6.90;99.90
37242;DHT22;23135;51.078;12.108;2024-02-26T09:31:31;6.80;99.90
37242;DHT22;23135;51.078;12.108;2024-02-26T09:33:56;6.90;99.90
37242;DHT22;23135;51.078;12.108;2024-02-26T09:36:22;6.80;99.90
37242;DHT22;23135;51.078;12.108;2024-02-26T09:38:48;6.80;99.90
37242;DHT22;23135;51.078;12.108;2024-02-26T09:41:14;7.00;99.90
37242;DHT22;23135;51.078;12.108;2024-02-26T09:43:43;7.00;99.90
37242;DHT22;23135;51.078;12.108;2024-02-26T09:46:09;7.20;99.90
37242;DHT22;23135;51.078;12.108;2024-02-26T09:48:35;7.40;99.90
37242;DHT22;23135;51.078;12.108;2024-02-26T09:51:02;7.50;99.90
37242;DHT22;23135;51.078;12.108;2024-02-26T09:53:30;7.70;99.90
37242;DHT22;23135;51.078;12.108;2024-02-26T09:55:58;7.70;99.90
37242;DHT22;23135;51.078;12.108;2024-02-26T09:58:26;7.70;99.90
37242;DHT22;23135;51.078;12.108;2024-02-26T10:00:55;7.80;99.90
37242;DHT22;23135;51.078;12.108;2024-02-26T10:03:27;8.00;99.90
37242;DHT22;23135;51.078;12.108;2024-02-26T10:05:53;8.00;99.90
37242;DHT22;23135;51.078;12.108;2024-02-26T10:08:21;7.80;99.90
37242;DHT22;23135;51.078;12.108;2024-02-26T10:10:47;7.70;99.90
37242;DHT22;23135;51.078;12.108;2024-02-26T10:13:13;7.60;99.90
37242;DHT22;23135;51.078;12.108;2024-02-26T10:15:39;7.60;99.90
37242;DHT22;23135;51.078;12.108;2024-02-26T10:18:07;7.50;99.90
37242;DHT22;23135;51.078;12.108;2024-02-26T10:20:33;7.40;99.90
37242;DHT22;23135;51.078;12.108;2024-02-26T10:23:02;7.40;99.90
37242;DHT22;23135;51.078;12.108;2024-02-26T10:25:29;7.40;99.90
37242;DHT22;23135;51.078;12.108;2024-02-26T10:28:00;7.50;99.90
37242;DHT22;23135;51.078;12.108;2024-02-26T10:30:28;7.50;99.90
37242;DHT22;23135;51.078;12.108;2024-02-26T10:32:54;7.40;99.90
37242;DHT22;23135;51.078;12.108;2024-02-26T10:35:20;7.40;99.90
37242;DHT22;23135;51.078;12.108;2024-02-26T10:37:46;7.40;99.90
37242;DHT22;23135;51.078;12.108;2024-02-26T10:40:13;7.40;99.90
37242;DHT22;23135;51.078;12.108;2024-02-26T10:42:39;7.40;99.90
37242;DHT22;23135;51.078;12.108;2024-02-26T10:45:09;7.40;99.90
37242;DHT22;23135;51.078;12.108;2024-02-26T10:47:38;7.50;99.90
37242;DHT22;23135;51.078;12.108;2024-02-26T10:50:06;7.50;99.90
37242;DHT22;23135;51.078;12.108;2024-02-26T10:52:33;7.60;99.90
37242;DHT22;23135;51.078;12.108;2024-02-26T10:55:05;7.70;99.90
37242;DHT22;23135;51.078;12.108;2024-02-26T10:57:39;7.80;99.90
37242;DHT22;23135;51.078;12.108;2024-02-26T11:00:06;7.80;99.90
37242;DHT22;23135;51.078;12.108;2024-02-26T11:02:36;7.90;99.90
37242;DHT22;23135;51.078;12.108;2024-02-26T11:05:05;8.00;99.90
37242;DHT22;23135;51.078;12.108;2024-02-26T11:07:32;8.10;99.90
37242;DHT22;23135;51.078;12.108;2024-02-26T11:10:00;8.10;99.90
37242;DHT22;23135;51.078;12.108;2024-02-26T11:12:27;8.10;99.90
37242;DHT22;23135;51.078;12.108;2024-02-26T11:14:55;8.20;99.90
37242;DHT22;23135;51.078;12.108;2024-02-26T11:17:22;8.30;99.90
37242;DHT22;23135;51.078;12.108;2024-02-26T11:19:50;8.40;99.90
37242;DHT22;23135;51.078;12.108;2024-02-26T11:22:16;8.60;99.90
37242;DHT22;23135;51.078;12.108;2024-02-26T11:24:42;8.70;99.90
37242;DHT22;23135;51.078;12.108;2024-02-26T11:27:10;8.80;99.90
37242;DHT22;23135;51.078;12.108;2024-02-26T11:29:50;9.00;99.90
37242;DHT22;23135;51.078;12.108;2024-02-26T11:32:17;9.10;99.90
37242;DHT22;23135;51.078;12.108;2024-02-26T11:34:44;9.30;99.90
37242;DHT22;23135;51.078;12.108;2024-02-26T11:37:19;9.30;99.90
37242;DHT22;23135;51.078;12.108;2024-02-26T11:39:45;9.40;99.90
37242;DHT22;23135;51.078;12.108;2024-02-26T11:42:14;9.50;99.90
37242;DHT22;23135;51.078;12.108;2024-02-26T11:44:40;9.50;99.90
37242;DHT22;23135;51.078;12.108;2024-02-26T11:47:33;9.60;99.90
37242;DHT22;23135;51.078;12.108;2024-02-26T11:50:00;9.70;99.90
37242;DHT22;23135;51.078;12.108;2024-02-26T11:58:43;9.80;99.90
37242;DHT22;23135;51.078;12.108;2024-02-26T12:01:47;9.80;99.90
37242;DHT22;23135;51.078;12.108;2024-02-26T12:06:47;9.80;99.90
37242;DHT22;23135;51.078;12.108;2024-02-26T12:09:13;9.70;99.90
37242;DHT22;23135;51.078;12.108;2024-02-26T12:11:39;9.60;99.90
37242;DHT22;23135;51.078;12.108;2024-02-26T12:14:07;9.60;99.90
37242;DHT22;23135;51.078;12.108;2024-02-26T12:19:07;9.60;99.90
37242;DHT22;23135;51.078;12.108;2024-02-26T12:21:37;9.70;99.90
37242;DHT22;23135;51.078;12.108;2024-02-26T12:24:10;9.70;99.90
37242;DHT22;23135;51.078;12.108;2024-02-26T12:26:37;9.70;99.90
37242;DHT22;23135;51.078;12.108;2024-02-26T12:29:02;9.70;99.90
37242;DHT22;23135;51.078;12.108;2024-02-26T12:31:28;9.80;99.90
37242;DHT22;23135;51.078;12.108;2024-02-26T12:33:54;9.80;99.90
37242;DHT22;23135;51.078;12.108;2024-02-26T12:36:21;9.80;99.90
37242;DHT22;23135;51.078;12.108;2024-02-26T12:38:50;9.80;99.90
37242;DHT22;23135;51.078;12.108;2024-02-26T12:41:16;9.80;99.90
37242;DHT22;23135;51.078;12.108;2024-02-26T12:43:42;9.80;99.90
37242;DHT22;23135;51.078;12.108;2024-02-26T12:46:08;9.80;99.90
37242;DHT22;23135;51.078;12.108;2024-02-26T12:48:33;9.80;99.90
37242;DHT22;23135;51.078;12.108;2024-02-26T12:50:59;10.00;99.90
37242;DHT22;23135;51.078;12.108;2024-02-26T12:53:26;10.00;99.90
37242;DHT22;23135;51.078;12.108;2024-02-26T12:55:55;10.00;99.90
37242;DHT22;23135;51.078;12.108;2024-02-26T12:58:21;10.00;99.90
37242;DHT22;23135;51.078;12.108;2024-02-26T13:00:51;10.10;99.90
37242;DHT22;23135;51.078;12.108;2024-02-26T13:03:17;10.10;99.90
37242;DHT22;23135;51.078;12.108;2024-02-26T13:05:44;10.10;99.90
37242;DHT22;23135;51.078;12.108;2024-02-26T13:08:11;10.10;99.90
37242;DHT22;23135;51.078;12.108;2024-02-26T13:10:42;10.10;99.90
37242;DHT22;23135;51.078;12.108;2024-02-26T13:13:08;10.20;99.90
37242;DHT22;23135;51.078;12.108;2024-02-26T13:15:34;10.00;99.90
37242;DHT22;23135;51.078;12.108;2024-02-26T13:18:12;10.10;99.90
37242;DHT22;23135;51.078;12.108;2024-02-26T13:20:38;10.00;99.90
37242;DHT22;23135;51.078;12.108;2024-02-26T13:23:07;10.10;99.90
37242;DHT22;23135;51.078;12.108;2024-02-26T13:25:33;10.20;99.90
37242;DHT22;23135;51.078;12.108;2024-02-26T13:28:16;10.40;99.90
37242;DHT22;23135;51.078;12.108;2024-02-26T13:30:50;10.60;99.90
37242;DHT22;23135;51.078;12.108;2024-02-26T13:33:15;10.70;99.90
37242;DHT22;23135;51.078;12.108;2024-02-26T13:35:41;11.00;99.90
37242;DHT22;23135;51.078;12.108;2024-02-26T13:38:07;11.10;99.90
37242;DHT22;23135;51.078;12.108;2024-02-26T13:40:32;11.10;99.90
37242;DHT22;23135;51.078;12.108;2024-02-26T13:42:59;11.20;99.90
37242;DHT22;23135;51.078;12.108;2024-02-26T13:45:25;11.20;99.90
37242;DHT22;23135;51.078;12.108;2024-02-26T13:47:50;11.30;99.90
37242;DHT22;23135;51.078;12.108;2024-02-26T13:50:16;11.30;99.90
37242;DHT22;23135;51.078;12.108;2024-02-26T13:52:47;11.30;99.90
37242;DHT22;23135;51.078;12.108;2024-02-26T13:55:12;11.40;99.90
37242;DHT22;23135;51.078;12.108;2024-02-26T13:57:40;11.30;99.90
37242;DHT22;23135;51.078;12.108;2024-02-26T14:00:07;11.20;99.90
37242;DHT22;23135;51.078;12.108;2024-02-26T14:02:33;11.10;99.90
37242;DHT22;23135;51.078;12.108;2024-02-26T14:05:02;11.00;99.90
37242;DHT22;23135;51.078;12.108;2024-02-26T14:07:29;10.90;99.90
37242;DHT22;23135;51.078;12.108;2024-02-26T14:09:55;10.80;99.90
37242;DHT22;23135;51.078;12.108;2024-02-26T14:12:20;10.80;99.90
37242;DHT22;23135;51.078;12.108;2024-02-26T14:14:46;10.70;99.90
37242;DHT22;23135;51.078;12.108;2024-02-26T14:17:14;10.70;99.90
37242;DHT22;23135;51.078;12.108;2024-02-26T14:19:41;10.70;99.90
37242;DHT22;23135;51.078;12.108;2024-02-26T14:22:11;10.60;99.90
37242;DHT22;23135;51.078;12.108;2024-02-26T14:24:36;10.60;99.90
37242;DHT22;23135;51.078;12.108;2024-02-26T14:27:02;10.60;99.90
37242;DHT22;23135;51.078;12.108;2024-02-26T14:29:29;10.60;99.90
37242;DHT22;23135;51.078;12.108;2024-02-26T14:31:55;10.60;99.90
37242;DHT22;23135;51.078;12.108;2024-02-26T14:34:22;10.60;99.90
37242;DHT22;23135;51.078;12.108;2024-02-26T14:36:47;10.60;99.90
37242;DHT22;23135;51.078;12.108;2024-02-26T14:39:13;10.50;99.90
37242;DHT22;23135;51.078;12.108;2024-02-26T14:41:39;10.50;99.90
37242;DHT22;23135;51.078;12.108;2024-02-26T14:44:05;10.60;99.90
37242;DHT22;23135;51.078;12.108;2024-02-26T14:46:31;10.60;99.90
37242;DHT22;23135;51.078;12.108;2024-02-26T14:48:56;10.50;99.90
37242;DHT22;23135;51.078;12.108;2024-02-26T14:51:23;10.50;99.90
37242;DHT22;23135;51.078;12.108;2024-02-26T14:53:48;10.40;99.90
37242;DHT22;23135;51.078;12.108;2024-02-26T14:56:14;10.50;99.90
37242;DHT22;23135;51.078;12.108;2024-02-26T14:58:40;10.40;99.90
37242;DHT22;23135;51.078;12.108;2024-02-26T15:01:06;10.40;99.90
37242;DHT22;23135;51.078;12.108;2024-02-26T15:03:32;10.40;99.90
37242;DHT22;23135;51.078;12.108;2024-02-26T15:05:58;10.30;99.90
37242;DHT22;23135;51.078;12.108;2024-02-26T15:08:24;10.30;99.90
37242;DHT22;23135;51.078;12.108;2024-02-26T15:10:50;10.30;99.90
37242;DHT22;23135;51.078;12.108;2024-02-26T15:13:16;10.30;99.90
37242;DHT22;23135;51.078;12.108;2024-02-26T15:15:43;10.20;99.90
37242;DHT22;23135;51.078;12.108;2024-02-26T15:18:09;10.20;99.90
37242;DHT22;23135;51.078;12.108;2024-02-26T15:20:37;10.10;99.90
37242;DHT22;23135;51.078;12.108;2024-02-26T15:23:04;10.10;99.90
37242;DHT22;23135;51.078;12.108;2024-02-26T15:25:30;10.10;99.90
37242;DHT22;23135;51.078;12.108;2024-02-26T15:27:55;10.00;99.90
37242;DHT22;23135;51.078;12.108;2024-02-26T15:30:21;10.00;99.90
37242;DHT22;23135;51.078;12.108;2024-02-26T15:32:47;9.90;99.90